createdAt,value
2019-04-13T00:01:01.993Z,102800.05
2019-04-13T00:03:30.227Z,102797.53
2019-04-13T00:06:07.343Z,102801.79
2019-04-13T00:08:36.097Z,102803.34
2019-04-13T00:11:10.969Z,102797.53
2019-04-13T00:13:38.936Z,102796.40
2019-04-13T00:16:06.822Z,102790.89
2019-04-13T00:18:35.674Z,102791.23
2019-04-13T00:21:03.678Z,102792.13
2019-04-13T00:23:31.535Z,102791.78
2019-04-13T00:25:59.518Z,102790.77
2019-04-13T00:28:27.342Z,102794.63
2019-04-13T00:30:55.385Z,102796.06
2019-04-13T00:33:23.208Z,102795.17
2019-04-13T00:35:52.482Z,102796.51
2019-04-13T00:38:20.472Z,102787.35
2019-04-13T00:40:48.431Z,102789.09
2019-04-13T00:43:16.281Z,102783.53
2019-04-13T00:45:44.456Z,102786.55
2019-04-13T00:48:12.286Z,102790.28
2019-04-13T00:50:41.323Z,102782.48
2019-04-13T00:53:09.381Z,102788.02
2019-04-13T00:55:37.465Z,102781.69
2019-04-13T00:58:05.299Z,102778.58
2019-04-13T01:00:33.147Z,102776.00
2019-04-13T01:03:01.173Z,102787.75
2019-04-13T01:05:29.022Z,102782.06
2019-04-13T01:07:56.859Z,102785.19
2019-04-13T01:10:24.884Z,102788.11
2019-04-13T01:12:52.885Z,102792.80
2019-04-13T01:15:20.937Z,102783.67
2019-04-13T01:17:48.830Z,102782.80
2019-04-13T01:20:16.894Z,102781.09
2019-04-13T01:22:45.851Z,102790.51
2019-04-13T01:25:13.855Z,102784.91
2019-04-13T01:27:41.824Z,102787.87
2019-04-13T01:30:11.305Z,102785.97
2019-04-13T01:32:39.233Z,102790.32
2019-04-13T01:35:07.097Z,102786.13
2019-04-13T01:37:34.925Z,102782.69
2019-04-13T01:40:04.067Z,102781.80
2019-04-13T01:42:32.226Z,102778.30
2019-04-13T01:45:00.135Z,102773.64
2019-04-13T01:47:27.975Z,102772.69
2019-04-13T01:49:55.943Z,102775.27
2019-04-13T01:52:23.925Z,102778.20
2019-04-13T01:54:51.754Z,102773.06
2019-04-13T01:57:19.600Z,102772.25
2019-04-13T01:59:47.633Z,102770.91
2019-04-13T02:02:35.077Z,102765.39
2019-04-13T02:05:22.218Z,102764.17
2019-04-13T02:07:58.043Z,102770.14
2019-04-13T02:10:37.816Z,102766.20
2019-04-13T02:13:05.732Z,102761.87
2019-04-13T02:15:33.917Z,102766.58
2019-04-13T02:18:01.771Z,102763.89
2019-04-13T02:20:29.598Z,102762.20
2019-04-13T02:22:57.531Z,102757.77
2019-04-13T02:25:27.396Z,102758.24
2019-04-13T02:27:55.888Z,102753.58
2019-04-13T02:30:25.701Z,102758.70
2019-04-13T02:32:53.550Z,102766.44
2019-04-13T02:35:34.443Z,102761.11
2019-04-13T02:37:51.313Z,102765.90
2019-04-13T02:40:19.169Z,102765.03
2019-04-13T02:42:47.140Z,102763.00
2019-04-13T02:45:15.789Z,102758.24
2019-04-13T02:47:43.617Z,102759.84
2019-04-13T02:50:12.289Z,102761.91
2019-04-13T02:52:40.572Z,102759.70
2019-04-13T02:55:08.625Z,102767.12
2019-04-13T02:57:36.574Z,102771.58
2019-04-13T03:00:05.344Z,102764.28
2019-04-13T03:02:33.193Z,102766.44
2019-04-13T03:05:01.009Z,102767.73
2019-04-13T03:07:29.060Z,102770.30
2019-04-13T03:09:57.164Z,102766.38
2019-04-13T03:12:25.478Z,102772.88
2019-04-13T03:14:53.453Z,102771.47
2019-04-13T03:17:28.803Z,102771.09
2019-04-13T03:20:00.304Z,102772.78
2019-04-13T03:22:28.139Z,102786.07
2019-04-13T03:24:56.098Z,102783.73
2019-04-13T03:27:24.162Z,102788.83
2019-04-13T03:29:52.158Z,102769.96
2019-04-13T03:32:20.034Z,102789.77
2019-04-13T03:34:47.856Z,102791.44
2019-04-13T03:37:15.970Z,102790.13
2019-04-13T03:39:43.803Z,102786.06
2019-04-13T03:42:11.626Z,102775.63
2019-04-13T03:44:45.287Z,102789.19
2019-04-13T03:47:13.182Z,102788.73
2019-04-13T03:49:41.008Z,102786.27
2019-04-13T03:52:08.944Z,102787.11
2019-04-13T03:54:36.792Z,102790.64
2019-04-13T03:57:04.968Z,102781.16
2019-04-13T03:59:32.814Z,102787.91
2019-04-13T04:02:00.842Z,102784.56
2019-04-13T04:04:28.656Z,102794.03
2019-04-13T04:06:56.662Z,102789.05
2019-04-13T04:09:24.752Z,102783.50
2019-04-13T04:11:52.847Z,102793.03
2019-04-13T04:14:20.694Z,102787.79
2019-04-13T04:16:48.538Z,102798.55
2019-04-13T04:19:16.518Z,102794.80
2019-04-13T04:21:45.445Z,102799.87
2019-04-13T04:24:13.390Z,102798.98
2019-04-13T04:26:41.232Z,102801.92
2019-04-13T04:29:09.057Z,102800.62
2019-04-13T04:31:37.057Z,102798.03
2019-04-13T04:34:05.082Z,102810.20
2019-04-13T04:36:32.894Z,102807.10
2019-04-13T04:39:00.825Z,102806.66
2019-04-13T04:41:28.725Z,102808.81
2019-04-13T04:43:57.672Z,102814.88
2019-04-13T04:46:25.662Z,102809.28
2019-04-13T04:48:53.541Z,102807.94
2019-04-13T04:51:21.374Z,102806.54
2019-04-13T04:53:49.419Z,102816.34
2019-04-13T04:56:17.238Z,102814.31
2019-04-13T04:58:45.055Z,102813.08
2019-04-13T05:01:13.100Z,102815.63
2019-04-13T05:03:41.034Z,102818.96
2019-04-13T05:06:08.842Z,102823.17
2019-04-13T05:08:36.817Z,102814.88
2019-04-13T05:11:04.644Z,102820.66
2019-04-13T05:13:32.460Z,102830.12
2019-04-13T05:16:00.429Z,102824.66
2019-04-13T05:18:29.270Z,102827.22
2019-04-13T05:20:57.306Z,102839.76
2019-04-13T05:23:25.143Z,102836.49
2019-04-13T05:25:52.952Z,102831.30
2019-04-13T05:28:20.914Z,102838.34
2019-04-13T05:30:48.781Z,102837.62
2019-04-13T05:33:16.575Z,102844.84
2019-04-13T05:35:44.618Z,102839.97
2019-04-13T05:38:12.431Z,102836.84
2019-04-13T05:40:40.472Z,102836.25
2019-04-13T05:43:08.316Z,102833.08
2019-04-13T05:45:36.742Z,102833.26
2019-04-13T05:48:04.905Z,102831.39
2019-04-13T05:50:32.976Z,102829.63
2019-04-13T05:53:00.954Z,102828.08
2019-04-13T05:55:28.811Z,102829.42
2019-04-13T05:57:56.795Z,102834.70
2019-04-13T06:00:24.742Z,102837.02
2019-04-13T06:02:52.746Z,102842.55
2019-04-13T06:05:20.721Z,102845.61
2019-04-13T06:07:50.562Z,102849.83
2019-04-13T06:10:21.269Z,102838.17
2019-04-13T06:12:48.352Z,102857.69
2019-04-13T06:15:16.289Z,102857.78
2019-04-13T06:17:44.268Z,102852.34
2019-04-13T06:20:13.180Z,102854.53
2019-04-13T06:22:42.470Z,102858.70
2019-04-13T06:25:10.612Z,102840.89
2019-04-13T06:27:42.174Z,102851.81
2019-04-13T06:30:26.965Z,102843.66
2019-04-13T06:33:01.394Z,102846.06
2019-04-13T06:35:29.855Z,102848.98
2019-04-13T06:37:57.887Z,102848.07
2019-04-13T06:40:26.397Z,102853.62
2019-04-13T06:42:54.817Z,102847.06
2019-04-13T06:45:23.087Z,102854.76
2019-04-13T06:47:51.115Z,102852.64
2019-04-13T06:50:18.932Z,102847.52
2019-04-13T06:52:47.162Z,102852.72
2019-04-13T06:55:16.357Z,102844.66
2019-04-13T06:57:44.896Z,102845.07
2019-04-13T07:00:15.502Z,102843.33
2019-04-13T07:02:43.181Z,102853.37
2019-04-13T07:05:11.280Z,102839.81
2019-04-13T07:07:45.943Z,102841.20
2019-04-13T07:10:44.799Z,102822.61
2019-04-13T07:13:22.152Z,102839.03
2019-04-13T07:15:53.839Z,102836.86
2019-04-13T07:18:21.884Z,102835.59
2019-04-13T07:20:51.950Z,102839.06
2019-04-13T07:23:19.591Z,102839.06
2019-04-13T07:25:47.451Z,102834.30
2019-04-13T07:28:15.287Z,102837.33
2019-04-13T07:30:43.303Z,102839.07
2019-04-13T07:33:11.128Z,102831.28
2019-04-13T07:35:40.606Z,102828.67
2019-04-13T07:38:08.766Z,102825.58
2019-04-13T07:40:36.638Z,102822.86
2019-04-13T07:43:04.447Z,102822.97
2019-04-13T07:46:01.248Z,102819.44
2019-04-13T07:48:48.855Z,102815.05
2019-04-13T07:51:36.269Z,102818.53
2019-04-13T07:54:06.905Z,102811.58
2019-04-13T07:56:34.391Z,102809.48
2019-04-13T07:59:02.213Z,102815.53
2019-04-13T08:01:30.209Z,102809.84
2019-04-13T08:03:58.081Z,102807.17
2019-04-13T08:06:26.127Z,102801.03
2019-04-13T08:08:54.338Z,102801.95
2019-04-13T08:11:22.156Z,102799.59
2019-04-13T08:13:50.016Z,102791.72
2019-04-13T08:16:17.971Z,102797.69
2019-04-13T08:19:14.590Z,102800.05
2019-04-13T08:21:43.698Z,102788.60
2019-04-13T08:24:11.643Z,102785.84
2019-04-13T08:26:39.629Z,102790.52
2019-04-13T08:29:07.603Z,102783.98
2019-04-13T08:31:36.243Z,102778.95
2019-04-13T08:34:04.169Z,102773.80
2019-04-13T08:36:33.265Z,102776.24
2019-04-13T08:39:01.231Z,102773.97
2019-04-13T08:41:29.074Z,102767.84
2019-04-13T08:43:56.891Z,102770.30
2019-04-13T08:46:27.943Z,102769.41
2019-04-13T08:48:55.094Z,102771.91
2019-04-13T08:51:22.993Z,102766.30
2019-04-13T08:53:50.820Z,102778.20
2019-04-13T08:56:18.785Z,102772.93
2019-04-13T08:58:47.803Z,102770.50
2019-04-13T09:01:16.040Z,102775.37
2019-04-13T09:03:44.157Z,102768.66
2019-04-13T09:06:16.391Z,102765.13
2019-04-13T09:08:42.079Z,102769.48
2019-04-13T09:11:14.312Z,102763.09
2019-04-13T09:13:42.084Z,102761.13
2019-04-13T09:16:10.757Z,102763.48
2019-04-13T09:18:46.318Z,102763.93
2019-04-13T09:21:25.018Z,102756.64
2019-04-13T09:23:52.430Z,102754.59
2019-04-13T09:26:20.236Z,102762.89
2019-04-13T09:28:48.240Z,102756.23
2019-04-13T09:31:16.152Z,102759.95
2019-04-13T09:33:44.403Z,102758.72
2019-04-13T09:36:13.578Z,102746.00
2019-04-13T09:38:42.969Z,102746.42
2019-04-13T09:41:11.380Z,102750.45
2019-04-13T09:44:02.593Z,102753.75
2019-04-13T09:46:30.675Z,102751.78
2019-04-13T09:48:58.626Z,102754.19
2019-04-13T09:51:26.607Z,102749.21
2019-04-13T09:53:56.218Z,102754.34
2019-04-13T09:56:36.441Z,102751.19
2019-04-13T09:58:54.185Z,102744.36
2019-04-13T10:01:24.921Z,102746.82
2019-04-13T10:03:52.771Z,102746.95
2019-04-13T10:06:20.689Z,102742.05
2019-04-13T10:08:55.663Z,102742.05
2019-04-13T10:11:22.621Z,102737.39
2019-04-13T10:14:13.601Z,102740.52
2019-04-13T10:16:50.534Z,102734.54
2019-04-13T10:19:18.130Z,102732.25
2019-04-13T10:21:46.999Z,102725.64
2019-04-13T10:24:16.011Z,102719.13
2019-04-13T10:26:48.308Z,102721.14
2019-04-13T10:29:16.248Z,102720.53
2019-04-13T10:31:43.611Z,102722.72
2019-04-13T10:34:11.434Z,102723.87
2019-04-13T10:36:39.269Z,102711.02
2019-04-13T10:39:08.715Z,102709.45
2019-04-13T10:41:37.868Z,102706.56
2019-04-13T10:44:08.141Z,102704.32
2019-04-13T10:46:55.151Z,102703.63
2019-04-13T10:49:34.432Z,102701.97
2019-04-13T10:52:10.386Z,102702.30
2019-04-13T10:54:38.362Z,102700.87
2019-04-13T10:57:06.183Z,102701.67
2019-04-13T10:59:34.124Z,102699.18
2019-04-13T11:02:02.050Z,102692.01
2019-04-13T11:04:30.369Z,102692.42
2019-04-13T11:06:58.220Z,102687.22
2019-04-13T11:09:29.013Z,102682.61
2019-04-13T11:11:56.011Z,102685.17
2019-04-13T11:14:24.953Z,102688.05
2019-04-13T11:16:58.097Z,102678.53
2019-04-13T11:19:23.017Z,102664.23
2019-04-13T11:21:51.014Z,102666.87
2019-04-13T11:24:18.842Z,102666.17
2019-04-13T11:26:46.831Z,102650.19
2019-04-13T11:29:14.444Z,102658.59
2019-04-13T11:31:42.442Z,102644.69
2019-04-13T11:34:10.442Z,102655.50
2019-04-13T11:36:38.484Z,102652.55
2019-04-13T11:39:07.206Z,102642.19
2019-04-13T11:41:54.828Z,102633.42
2019-04-13T11:44:54.006Z,102636.05
2019-04-13T11:47:31.098Z,102632.16
2019-04-13T11:49:59.046Z,102636.44
2019-04-13T11:52:26.864Z,102638.23
2019-04-13T11:54:54.685Z,102637.34
2019-04-13T11:57:22.681Z,102628.23
2019-04-13T11:59:50.622Z,102628.66
2019-04-13T12:02:37.161Z,102627.79
2019-04-13T12:05:21.940Z,102631.67
2019-04-13T12:07:59.511Z,102636.61
2019-04-13T12:10:52.681Z,102633.83
2019-04-13T12:13:42.130Z,102637.00
2019-04-13T12:16:36.083Z,102626.23
2019-04-13T12:19:10.992Z,102628.27
2019-04-13T12:21:50.163Z,102634.53
2019-04-13T12:24:29.075Z,102625.39
2019-04-13T12:26:59.089Z,102623.01
2019-04-13T12:29:27.270Z,102611.87
2019-04-13T12:31:55.543Z,102612.05
2019-04-13T12:34:23.938Z,102605.56
2019-04-13T12:36:52.110Z,102613.91
2019-04-13T12:39:20.649Z,102606.81
2019-04-13T12:41:52.573Z,102610.41
2019-04-13T12:44:20.418Z,102608.92
2019-04-13T12:46:48.380Z,102610.86
2019-04-13T12:49:16.213Z,102608.81
2019-04-13T12:51:44.152Z,102602.55
2019-04-13T12:54:12.116Z,102600.62
2019-04-13T12:56:39.965Z,102607.00
2019-04-13T12:59:08.094Z,102600.94
2019-04-13T13:01:56.308Z,102597.44
2019-04-13T13:04:26.339Z,102602.09
2019-04-13T13:06:54.220Z,102594.32
2019-04-13T13:09:22.443Z,102593.13
2019-04-13T13:11:50.268Z,102600.89
2019-04-13T13:14:18.214Z,102595.86
2019-04-13T13:16:47.159Z,102595.05
2019-04-13T13:19:16.040Z,102595.83
2019-04-13T13:21:44.228Z,102590.59
2019-04-13T13:24:12.085Z,102588.81
2019-04-13T13:26:48.355Z,102581.12
2019-04-13T13:29:09.844Z,102583.98
2019-04-13T13:31:37.691Z,102584.62
2019-04-13T13:34:05.557Z,102574.89
2019-04-13T13:36:33.481Z,102576.01
2019-04-13T13:39:01.375Z,102578.70
2019-04-13T13:41:29.204Z,102576.19
2019-04-13T13:43:57.180Z,102575.73
2019-04-13T13:46:25.004Z,102572.88
2019-04-13T13:48:53.206Z,102568.75
2019-04-13T13:51:21.363Z,102579.01
2019-04-13T13:53:50.547Z,102573.80
2019-04-13T13:56:18.709Z,102593.20
2019-04-13T13:58:51.695Z,102595.43
2019-04-13T14:01:45.196Z,102605.08
2019-04-13T14:04:13.017Z,102604.00
2019-04-13T14:06:41.171Z,102602.48
2019-04-13T14:09:10.293Z,102602.09
2019-04-13T14:11:38.204Z,102602.86
2019-04-13T14:14:06.439Z,102596.91
2019-04-13T14:16:34.910Z,102592.30
2019-04-13T14:19:02.839Z,102592.50
2019-04-13T14:21:30.867Z,102582.78
2019-04-13T14:23:58.943Z,102588.44
2019-04-13T14:26:26.834Z,102588.37
2019-04-13T14:28:54.796Z,102592.70
2019-04-13T14:31:22.992Z,102586.66
2019-04-13T14:33:50.860Z,102588.20
2019-04-13T14:36:18.680Z,102589.72
2019-04-13T14:38:47.206Z,102585.89
2019-04-13T14:41:15.078Z,102591.92
2019-04-13T14:43:47.430Z,102585.78
2019-04-13T14:46:12.965Z,102604.66
2019-04-13T14:48:40.884Z,102594.14
2019-04-13T14:51:08.721Z,102591.09
2019-04-13T14:53:36.674Z,102583.85
2019-04-13T14:56:05.436Z,102587.90
2019-04-13T14:58:34.495Z,102578.03
2019-04-13T15:01:03.712Z,102580.03
2019-04-13T15:03:31.593Z,102584.83
2019-04-13T15:05:59.484Z,102586.37
2019-04-13T15:08:27.455Z,102602.39
2019-04-13T15:10:57.909Z,102609.37
2019-04-13T15:13:25.455Z,102634.91
2019-04-13T15:15:54.582Z,102637.09
2019-04-13T15:18:44.637Z,102646.72
2019-04-13T15:21:13.195Z,102643.55
2019-04-13T15:23:42.694Z,102647.73
2019-04-13T15:26:12.321Z,102643.19
2019-04-13T15:28:41.315Z,102647.02
2019-04-13T15:31:10.399Z,102640.59
2019-04-13T15:33:41.387Z,102634.56
2019-04-13T15:36:09.654Z,102632.28
2019-04-13T15:38:39.463Z,102631.79
2019-04-13T15:41:10.098Z,102623.25
2019-04-13T15:43:38.303Z,102618.09
2019-04-13T15:46:09.212Z,102616.52
2019-04-13T15:48:37.375Z,102614.47
2019-04-13T15:51:05.414Z,102605.73
2019-04-13T15:53:34.489Z,102597.12
2019-04-13T15:56:02.647Z,102604.59
2019-04-13T15:58:30.861Z,102593.69
2019-04-13T16:00:58.980Z,102590.35
2019-04-13T16:03:27.853Z,102591.20
2019-04-13T16:05:56.011Z,102587.00
2019-04-13T16:08:26.356Z,102584.78
2019-04-13T16:11:08.683Z,102581.81
2019-04-13T16:13:37.218Z,102587.39
2019-04-13T16:16:07.463Z,102585.09
2019-04-13T16:18:35.294Z,102587.23
2019-04-13T16:21:04.245Z,102583.45
2019-04-13T16:23:32.695Z,102583.73
2019-04-13T16:26:01.831Z,102584.11
2019-04-13T16:28:59.106Z,102581.42
2019-04-13T16:31:37.974Z,102577.45
2019-04-13T16:34:24.137Z,102580.62
2019-04-13T16:37:21.320Z,102578.45
2019-04-13T16:39:49.374Z,102566.36
2019-04-13T16:42:22.820Z,102570.66
2019-04-13T16:45:05.375Z,102570.42
2019-04-13T16:47:43.842Z,102557.30
2019-04-13T16:50:37.442Z,102563.34
2019-04-13T16:53:24.447Z,102554.27
2019-04-13T16:55:56.092Z,102551.71
2019-04-13T16:58:50.936Z,102557.21
2019-04-13T17:01:44.507Z,102556.02
2019-04-13T17:04:47.306Z,102556.03
2019-04-13T17:07:15.609Z,102554.75
2019-04-13T17:09:43.693Z,102559.37
2019-04-13T17:12:21.352Z,102546.05
2019-04-13T17:14:41.463Z,102551.80
2019-04-13T17:17:11.377Z,102549.52
2019-04-13T17:20:05.700Z,102545.04
2019-04-13T17:22:57.003Z,102551.13
2019-04-13T17:25:31.008Z,102547.64
2019-04-13T17:28:18.821Z,102547.63
2019-04-13T17:30:54.174Z,102549.23
2019-04-13T17:33:35.573Z,102553.36
2019-04-13T17:36:06.278Z,102542.34
2019-04-13T17:38:35.089Z,102551.64
2019-04-13T17:41:18.694Z,102547.28
2019-04-13T17:43:58.059Z,102554.59
2019-04-13T17:46:42.954Z,102549.03
2019-04-13T17:49:30.094Z,102549.14
2019-04-13T17:52:16.698Z,102548.02
2019-04-13T17:55:14.765Z,102555.73
2019-04-13T17:57:55.833Z,102556.13
2019-04-13T18:00:55.957Z,102560.58
2019-04-13T18:03:42.898Z,102560.45
2019-04-13T18:06:33.697Z,102557.11
2019-04-13T18:09:25.031Z,102557.52
2019-04-13T18:12:07.985Z,102554.94
2019-04-13T18:14:42.383Z,102556.17
2019-04-13T18:17:22.202Z,102564.08
2019-04-13T18:19:50.789Z,102553.69
2019-04-13T18:22:21.327Z,102560.69
2019-04-13T18:24:49.271Z,102569.76
2019-04-13T18:27:17.387Z,102556.86
2019-04-13T18:29:57.143Z,102559.45
2019-04-13T18:32:15.487Z,102562.77
2019-04-13T18:34:43.554Z,102564.56
2019-04-13T18:37:11.725Z,102564.62
2019-04-13T18:39:39.892Z,102572.09
2019-04-13T18:42:08.131Z,102567.81
2019-04-13T18:44:36.573Z,102572.22
2019-04-13T18:47:05.627Z,102574.17
2019-04-13T18:49:34.606Z,102575.96
2019-04-13T18:52:02.920Z,102585.89
2019-04-13T18:54:32.195Z,102582.91
2019-04-13T18:57:00.375Z,102585.92
2019-04-13T18:59:30.171Z,102585.08
2019-04-13T19:01:59.511Z,102588.53
2019-04-13T19:04:27.677Z,102588.48
2019-04-13T19:06:55.709Z,102588.49
2019-04-13T19:09:23.672Z,102592.33
2019-04-13T19:11:51.489Z,102600.13
2019-04-13T19:14:19.578Z,102601.44
2019-04-13T19:16:47.440Z,102612.22
2019-04-13T19:19:15.624Z,102609.17
2019-04-13T19:21:43.451Z,102612.17
2019-04-13T19:24:11.624Z,102607.81
2019-04-13T19:26:39.549Z,102616.88
2019-04-13T19:29:07.438Z,102600.00
2019-04-13T19:31:35.426Z,102611.58
2019-04-13T19:34:03.250Z,102613.30
2019-04-13T19:36:31.083Z,102612.84
2019-04-13T19:38:59.051Z,102616.33
2019-04-13T19:41:27.013Z,102608.94
2019-04-13T19:43:54.943Z,102594.22
2019-04-13T19:46:22.767Z,102616.83
2019-04-13T19:48:51.017Z,102620.78
2019-04-13T19:51:20.878Z,102611.75
2019-04-13T19:53:55.125Z,102610.91
2019-04-13T19:56:23.973Z,102605.30
2019-04-13T19:58:51.836Z,102611.38
2019-04-13T20:01:30.345Z,102608.38
2019-04-13T20:03:58.403Z,102610.16
2019-04-13T20:06:26.335Z,102607.97
2019-04-13T20:08:54.226Z,102605.84
2019-04-13T20:11:22.077Z,102605.86
2019-04-13T20:13:57.156Z,102611.05
2019-04-13T20:16:20.884Z,102617.14
2019-04-13T20:18:49.123Z,102609.81
2019-04-13T20:21:17.214Z,102611.98
2019-04-13T20:23:45.229Z,102608.52
2019-04-13T20:26:18.760Z,102608.52
2019-04-13T20:28:46.705Z,102612.86
2019-04-13T20:31:15.755Z,102609.41
2019-04-13T20:33:44.008Z,102613.72
2019-04-13T20:36:16.387Z,102614.57
2019-04-13T20:38:41.660Z,102612.44
2019-04-13T20:41:19.220Z,102611.09
2019-04-13T20:43:55.270Z,102605.46
2019-04-13T20:46:19.008Z,102598.97
2019-04-13T20:48:47.432Z,102605.84
2019-04-13T20:51:15.632Z,102598.09
2019-04-13T20:53:43.433Z,102584.69
2019-04-13T20:56:12.159Z,102599.78
2019-04-13T20:58:40.350Z,102606.28
2019-04-13T21:01:08.415Z,102601.05
2019-04-13T21:03:36.410Z,102604.08
2019-04-13T21:06:04.677Z,102606.70
2019-04-13T21:08:34.507Z,102606.25
2019-04-13T21:11:02.715Z,102612.73
2019-04-13T21:13:31.695Z,102615.77
2019-04-13T21:15:59.753Z,102615.77
2019-04-13T21:18:27.823Z,102611.41
2019-04-13T21:20:55.879Z,102607.03
2019-04-13T21:23:23.701Z,102608.72
2019-04-13T21:25:51.746Z,102604.44
2019-04-13T21:28:19.591Z,102600.11
2019-04-13T21:30:48.875Z,102599.70
2019-04-13T21:33:16.893Z,102607.03
2019-04-13T21:35:44.858Z,102595.38
2019-04-13T21:38:12.861Z,102608.77
2019-04-13T21:40:40.691Z,102613.50
2019-04-13T21:43:08.513Z,102608.23
2019-04-13T21:45:36.509Z,102612.16
2019-04-13T21:48:04.897Z,102612.11
2019-04-13T21:51:05.154Z,102599.16
2019-04-13T21:53:37.767Z,102612.03
2019-04-13T21:56:05.905Z,102604.22
2019-04-13T21:58:34.004Z,102602.09
2019-04-13T22:01:32.701Z,102604.28
2019-04-13T22:04:00.764Z,102603.37
2019-04-13T22:06:29.868Z,102598.27
2019-04-13T22:08:57.778Z,102607.32
2019-04-13T22:11:25.802Z,102602.98
2019-04-13T22:13:53.857Z,102606.42
2019-04-13T22:16:23.275Z,102607.65
2019-04-13T22:18:51.775Z,102597.23
2019-04-13T22:21:19.926Z,102605.83
2019-04-13T22:23:47.864Z,102609.27
2019-04-13T22:26:15.868Z,102610.22
2019-04-13T22:28:49.621Z,102617.09
2019-04-13T22:31:35.163Z,102611.52
2019-04-13T22:34:09.674Z,102611.45
2019-04-13T22:36:37.781Z,102609.77
2019-04-13T22:39:07.638Z,102606.75
2019-04-13T22:41:35.652Z,102610.17
2019-04-13T22:44:03.600Z,102592.83
2019-04-13T22:46:32.444Z,102601.94
2019-04-13T22:49:10.295Z,102608.81
2019-04-13T22:51:55.918Z,102612.75
2019-04-13T22:54:52.411Z,102612.73
2019-04-13T22:57:41.415Z,102614.82
2019-04-13T23:00:21.615Z,102619.91
2019-04-13T23:02:51.911Z,102619.81
2019-04-13T23:05:20.214Z,102618.11
2019-04-13T23:07:48.185Z,102623.31
2019-04-13T23:10:16.109Z,102624.98
2019-04-13T23:12:44.336Z,102625.05
2019-04-13T23:15:22.010Z,102620.70
2019-04-13T23:17:42.339Z,102613.72
2019-04-13T23:20:10.611Z,102613.33
2019-04-13T23:22:38.549Z,102614.14
2019-04-13T23:25:07.401Z,102621.89
2019-04-13T23:27:35.559Z,102614.08
2019-04-13T23:30:05.693Z,102610.66
2019-04-13T23:32:33.747Z,102617.11
2019-04-13T23:35:02.900Z,102611.94
2019-04-13T23:37:32.267Z,102605.87
2019-04-13T23:40:00.761Z,102610.55
2019-04-13T23:42:28.762Z,102611.76
2019-04-13T23:45:07.342Z,102610.11
2019-04-13T23:47:28.349Z,102601.90
2019-04-13T23:49:58.152Z,102604.53
2019-04-13T23:52:26.105Z,102605.82
2019-04-13T23:54:54.493Z,102607.02
2019-04-13T23:57:29.484Z,102597.96
